1969 Tropical Cyclone AUDREY:BONNIE (1969060S12136)


IBTrACS version v04r00. Visit IBTrACS website for data access.
Please direct all questions to the IBTrACS Q and A forum

Storm track - Intensity - Wind Radii - Intensity Data - Source Data - All data

Summary Information

Storm ID 1969060S12136
Start Feb 28 23Z
Landfall Mar 3 15Z, Mar 4 23Z, Mar 6 16Z
Max Intensity 45 kt (Mar 2 12Z), 975 mb (Mar 4 21Z)
End Mar 9 01Z
ATCF IDs ,SH271969
Track status Best track data.

Storm track plot

Map of storm track

Intensity plots

Map of storm track

Radial wind information

No radial wind information for this storm


Position and Intensity Table

BASIN ISO_TIME_________ NATURE LAT LON WMO PRES BOM PRES NEUMANN WIND NEUMANN PRES
degrees north degrees east mb mb kts mb
SP 1969-02-28 23:00:00 NR -12.40 136.30
SP 1969-03-01 00:00:00 TS -12.51 136.16 1002 1002
SP 02:00:00 TS -12.37 136.15 1002 1002
SP 03:00:00 TS -12.32 136.15 1001 1001
SP 06:00:00 TS -12.11 136.20 1000 1000 30 1000
SP 09:00:00 TS -11.97 136.34 998 998 32 999
SP 11:00:00 TS -11.92 136.43 998 34 998
SP 12:00:00 TS -11.91 136.47 998 998 35 998
SP 15:00:00 TS -11.90 136.50 997 997 37 997
SP 16:30:00 TS -11.91 136.39 997 997 38 996
SP 18:00:00 TS -11.88 136.40 996 996 40 996
SP 21:00:00 TS -11.69 136.20 996 996 40 995
SP 23:00:00 TS -11.55 136.08 995 40 995
SP 1969-03-02 00:00:00 TS -11.48 136.03 995 995 40 995
SP 03:00:00 TS -11.34 135.91 994 994 40 994
SP 04:30:00 TS -11.29 135.85 994 994 40 993
SP 06:00:00 TS -11.28 135.79 993 993 40 993
SP 09:00:00 TS -11.27 135.68 992 992 42 992
SP 11:00:00 TS -11.27 135.59 992 44 992
SP 12:00:00 TS -11.28 135.55 992 992 45 992
SP 15:00:00 TS -11.35 135.43 992 992 45 992
SP 18:00:00 TS -11.46 135.31 992 992 45 992
SP 21:00:00 TS -11.59 135.16 992 992 45 992
SP 23:00:00 TS -11.67 135.04 992 45 992
SI 1969-03-03 00:00:00 TS -11.70 134.98 992 992 45 992
SI 03:00:00 TS -11.76 134.77 992 992 45 991
SI 06:00:00 TS -11.80 134.54 991 991 45 991
SI 09:00:00 TS -11.87 134.33 991 991 42 991
SI 11:00:00 TS -11.91 134.17 991 40 991
SI 12:00:00 TS -11.93 134.08 991 991 40 991
SI 15:00:00 TS -12.02 133.76 992 992 37 991
SI 18:00:00 TS -12.13 133.42 992 992 35 991
SI 21:00:00 TS -12.26 133.03 992 992 35 991
SI 23:00:00 TS -12.37 132.74 992 35 991
SI 1969-03-04 00:00:00 TS -12.44 132.58 993 993 35 992
SI 03:00:00 TS -12.72 132.07 993 32 992
SI 06:00:00 TS -13.04 131.52 994 994 30 993
SI 09:00:00 TS -13.36 130.96 994 994 30 993
SI 11:00:00 TS -13.57 130.59 994 30 993
SI 12:00:00 TS -13.68 130.40 994 994 30 994
SI 15:00:00 TS -13.95 129.75 993 993 30 993
SI 18:00:00 TS -14.21 129.13 992 992 30 992
SI 21:00:00 TS -14.43 128.60 975 975 30 990
SI 23:00:00 TS -14.63 128.22 975 30 988
SI 23:30:00 TS -14.67 128.14 976 976 30 988
SI 1969-03-05 00:00:00 TS -14.71 128.07 979 30 988
SI 01:30:00 TS -14.79 127.90 988 988 30 989
SI 03:00:00 TS -14.88 127.75 991 30 990
SI 04:00:00 TS -14.93 127.66 993 993 30 991
SI 06:00:00 TS -15.02 127.49 993 30 993
SI 09:00:00 TS -15.14 127.22 994 30 993
SI 11:00:00 TS -15.20 127.04 994 30 993
SI 12:00:00 TS -15.24 126.94 994 30 994
SI 13:00:00 TS -15.27 126.84 995 995 30 994
SI 15:00:00 TS -15.33 126.66 995 30 994
SI 18:00:00 TS -15.43 126.36 995 30 995
SI 21:00:00 TS -15.54 126.05 995 30 995
SI 23:00:00 TS -15.65 125.81 995 30 995
SI 1969-03-06 00:00:00 TS -15.71 125.67 995 30 995
SI 01:00:00 TS -15.78 125.50 996 996 30 994
SI 03:00:00 TS -15.96 125.13 994 32 994
SI 04:00:00 TS -16.05 124.95 994 33 993
SI 06:00:00 TS -16.23 124.63 993 35 993
SI 07:00:00 TS -16.32 124.48 993 993 35 992
SI 09:00:00 TS -16.50 124.24 992 35 992
SI 11:00:00 TS -16.69 124.06 991 35 991
SI 12:00:00 TS -16.80 123.98 991 35 991
SI 15:00:00 TS -17.11 123.77 990 32 990
SI 16:00:00 TS -17.22 123.71 990 990 31 990
SI 18:00:00 TS -17.43 123.56 991 30 990
SI 21:00:00 TS -17.74 123.35 993 30 992
SI 23:00:00 TS -17.94 123.22 994 30 993
SI 1969-03-07 00:00:00 TS -18.03 123.17 995 30 994
SI 01:00:00 TS -18.12 123.12 996 996 30 994
SI 03:00:00 TS -18.29 123.05 996 30 995
SI 06:00:00 TS -18.53 122.98 996 30 996
SI 07:00:00 TS -18.61 122.96 996 996 30 996
SI 09:00:00 TS -18.76 122.93 30 996
SI 11:00:00 TS -18.91 122.92 30 996
SI 12:00:00 TS -18.98 122.91 30 997
SI 15:00:00 TS -19.18 122.92 30 998
SI 18:00:00 TS -19.38 122.98 30 999
SI 21:00:00 TS -19.60 123.08 30 1000
SI 23:00:00 TS -19.74 123.19 30 1000
SI 1969-03-08 00:00:00 TS -19.80 123.25 30 1001
SI 01:00:00 TS -19.86 123.32 1002 1002 30 1001
SI 03:00:00 TS -19.98 123.48 1002 30 1001
SI 06:00:00 TS -20.13 123.78 1002 30 1002
SI 09:00:00 TS -20.28 124.12 1002 27 1002
SI 11:00:00 TS -20.37 124.36 1002 25 1002
SI 12:00:00 TS -20.42 124.48 1002 25 1002
SI 13:00:00 TS -20.48 124.60 1003 1003 25 1002
SI 15:00:00 TS -20.59 124.85 1003 25 1002
SI 18:00:00 TS -20.73 125.25 1003 25 1003
SI 21:00:00 TS -20.86 125.65 1004 22 1003
SI 23:00:00 TS -20.91 125.91 1004 20 1003
SI 1969-03-09 00:00:00 TS -20.97 126.06 1004 20 1004
SI 01:00:00 NR -21.00 126.20 1005 1005

Source Information

Agency Information
USA bsh271969.txt
TOKYO
CMA
HKO
NEWDELHI
REUNION
BOM IDCKMSTM0S.csv:Line=5278:AUDREY
NADI
WELLINGTON
DS824 s_hem.dat:1096:27P
TD9636 cons_worldwide_trop_cyclone_18710101-19891231-006:Line=8204
TD9635
NEUMANN tracks.sh:Storm=246:AUDREY/BONNI:E:BSH2769
MLC

All available IBTrACS Data

SEASON BASIN SUBBASIN ISO_TIME_________ NATURE LAT LON WMO PRES WMO AGENCY DIST2LAND LANDFALL IFLAG USA AGENCY USA ATCF_ID USA LAT USA LON USA SSHS BOM LAT BOM LON BOM PRES BOM PRES_METHOD DS824 LAT DS824 LON DS824 STAGE TD9636 LAT TD9636 LON TD9636 STAGE NEUMANN LAT NEUMANN LON NEUMANN CLASS NEUMANN WIND NEUMANN PRES STORM SPEED STORM DIR
Year degrees north degrees east mb km km degrees north degrees east 1 degrees north degrees east mb degrees north degrees east degrees north degrees east degrees north degrees east kts mb kts degrees
1969 SP EA 1969-02-28 23:00:00 NR -12.40 136.30 0 0 __________O___ -1 -12.40 136.30 7 11 232
1969 SP EA 1969-03-01 00:00:00 TS -12.51 136.16 1002 bom 0 0 O_____O__OP___ jtwc_sh SH271969 -12.40 136.30 -1 -12.60 136.00 1002 -12.40 136.30 TC -12.37 136.30 7 3 280
1969 SP EA 02:00:00 TS -12.37 136.15 1002 bom 10 10 P_____O__PP___ SH271969 -12.33 136.30 -1 -12.40 136.00 1002 -12.33 136.30 TC -12.31 136.30 7 4 352
1969 SP EA 03:00:00 TS -12.32 136.15 1001 bom 11 0 P_____O__PP___ SH271969 -12.30 136.30 -1 -12.40 136.00 1001 -12.30 136.30 TC -12.28 136.30 7 4 13
1969 SP EA 06:00:00 TS -12.11 136.20 1000 bom 11 11 O_____O__OP_O_ jtwc_sh SH271969 -12.20 136.30 -1 -12.00 136.10 1000 -12.20 136.30 TC -12.18 136.31 7 -12.10 136.30 TC 30 1000 4 27
1969 SP EA 09:00:00 TS -11.97 136.34 998 bom 15 10 P_____O__PP_P_ SH271969 -12.11 136.30 -1 -11.80 136.30 998 -12.11 136.30 TC -12.08 136.30 7 -11.87 136.64 TC 32 999 3 49
1969 SP EA 11:00:00 TS -11.92 136.43 15 11 P_____P__PO_P_ SH271969 -12.04 136.30 -1 -11.85 136.43 998 -12.04 136.30 TC -12.00 136.30 1 -11.79 136.78 TC 34 998 3 64
1969 SP EA 12:00:00 TS -11.91 136.47 998 bom 11 11 O_____O__OP_O_ jtwc_sh SH271969 -12.00 136.30 -1 -11.90 136.50 998 -12.00 136.30 TC -11.96 136.30 1 -11.80 136.80 TC 35 998 1 69
1969 SP EA 15:00:00 TS -11.90 136.50 997 bom 11 11 P_____O__PP_P_ SH271969 -11.85 136.31 -1 -12.00 136.70 997 -11.85 136.31 TC -11.83 136.29 1 -11.97 136.67 TC 37 997 1 269
1969 SP EA 16:30:00 TS -11.91 136.39 997 bom 15 15 P_____O__PP_P_ SH271969 -11.77 136.31 -1 -12.20 136.20 997 -11.77 136.31 TC -11.76 136.28 1 -12.07 136.54 TC 38 996 2 280
1969 SP EA 18:00:00 TS -11.88 136.40 996 bom 15 15 O_____O__OP_O_ jtwc_sh SH271969 -11.70 136.30 -1 -12.20 136.60 996 -11.70 136.30 TC -11.70 136.26 1 -12.10 136.40 TC 40 996 4 318
1969 SP EA 21:00:00 TS -11.69 136.20 996 bom 46 46 P_____O__PP_P_ SH271969 -11.59 136.26 -1 -11.90 136.10 996 -11.59 136.26 TC -11.57 136.23 1 -11.85 136.18 TC 40 995 6 316
1969 SP EA 23:00:00 TS -11.55 136.08 70 70 P_____P__PO_P_ SH271969 -11.53 136.22 -1 -11.62 135.95 995 -11.53 136.22 TC -11.50 136.20 2 -11.61 136.06 TC 40 995 5 321
1969 SP EA 1969-03-02 00:00:00 TS -11.48 136.03 995 bom 70 70 O_____O__OP_O_ jtwc_sh SH271969 -11.50 136.20 -1 -11.50 135.90 995 -11.50 136.20 TC -11.46 136.19 2 -11.50 136.00 TC 40 995 4 321
1969 SP EA 03:00:00 TS -11.34 135.91 994 bom 90 90 P_____O__PP_P_ SH271969 -11.39 136.16 -1 -11.30 135.70 994 -11.39 136.16 TC -11.36 136.14 2 -11.30 135.90 TC 40 994 3 318
1969 SP EA 04:30:00 TS -11.29 135.85 994 bom 90 89 P_____O__PP_P_ SH271969 -11.34 136.13 -1 -11.20 135.60 994 -11.34 136.13 TC -11.32 136.11 2 -11.23 135.86 TC 40 993 3 300
1969 SP EA 06:00:00 TS -11.28 135.79 993 bom 89 89 O_____O__OP_O_ jtwc_sh SH271969 -11.30 136.10 -1 -11.30 135.50 993 -11.30 136.10 TC -11.28 136.07 2 -11.20 135.80 TC 40 993 2 278
1969 SP EA 09:00:00 TS -11.27 135.68 992 bom 89 89 P_____O__PP_P_ SH271969 -11.23 136.02 -1 -11.40 135.40 992 -11.23 136.02 TC -11.22 135.98 2 -11.21 135.59 TC 42 992 2 271
1969 SP EA 11:00:00 TS -11.27 135.59 89 89 P_____P__PO_P_ SH271969 -11.21 135.95 -1 -11.40 135.33 992 -11.21 135.95 TC -11.20 135.90 2 -11.26 135.45 TC 44 992 2 262
1969 SP EA 12:00:00 TS -11.28 135.55 992 bom 89 89 O_____O__OP_O_ jtwc_sh SH271969 -11.20 135.90 -1 -11.40 135.30 992 -11.20 135.90 TC -11.19 135.86 2 -11.30 135.40 TC 45 992 3 244
1969 SP EA 15:00:00 TS -11.35 135.43 992 bom 81 74 P_____O__PP_P_ SH271969 -11.19 135.71 -1 -11.50 135.20 992 -11.19 135.71 TC -11.19 135.70 2 -11.43 135.34 TC 45 992 3 232
1969 SP EA 18:00:00 TS -11.46 135.31 992 bom 74 67 O_____O__OP_O_ jtwc_sh SH271969 -11.20 135.50 -1 -11.70 135.20 992 -11.20 135.50 TC -11.21 135.53 2 -11.60 135.30 TC 45 992 4 227
1969 SP EA 21:00:00 TS -11.59 135.16 992 bom 67 55 P_____O__PP_P_ SH271969 -11.23 135.30 -1 -11.90 135.10 992 -11.23 135.30 TC -11.26 135.33 2 -11.82 135.18 TC 45 992 4 232
1969 SP EA 23:00:00 TS -11.67 135.04 49 49 P_____P__PO_P_ SH271969 -11.27 135.17 -1 -11.98 134.97 992 -11.27 135.17 TC -11.30 135.20 2 -11.95 135.07 TC 45 992 4 239
1969 SI WA 1969-03-03 00:00:00 TS -11.70 134.98 992 bom 49 33 O_____O__OP_O_ jtwc_sh SH271969 -11.30 135.10 -1 -12.00 134.90 992 -11.30 135.10 TC -11.32 135.14 2 -12.00 135.00 TC 45 992 4 252
1969 SI WA 03:00:00 TS -11.76 134.77 992 bom 33 33 P_____O__PP_P_ SH271969 -11.39 134.90 -1 -12.00 134.70 992 -11.39 134.90 TC -11.41 134.96 2 -12.02 134.76 TC 45 991 4 258
1969 SI WA 06:00:00 TS -11.80 134.54 991 bom 33 15 O_____O__OP_O_ jtwc_sh SH271969 -11.50 134.70 -1 -12.00 134.40 991 -11.50 134.70 TC -11.52 134.76 2 -12.00 134.50 TC 45 991 5 256
1969 SI WA 09:00:00 TS -11.87 134.33 991 bom 15 11 P_____O__PP_P_ SH271969 -11.60 134.50 -1 -12.10 134.20 991 -11.60 134.50 TC -11.63 134.55 2 -12.03 134.27 TC 42 991 5 253
1969 SI WA 11:00:00 TS -11.91 134.17 11 11 P_____P__PO_P_ SH271969 -11.67 134.37 -1 -12.10 134.02 991 -11.67 134.37 TC -11.70 134.40 2 -12.07 134.10 TC 40 991 5 255
1969 SI WA 12:00:00 TS -11.93 134.08 991 bom 11 0 O_____O__OP_O_ jtwc_sh SH271969 -11.70 134.30 -1 -12.10 133.90 991 -11.70 134.30 TC -11.71 134.34 2 -12.10 134.00 TC 40 991 6 254
1969 SI WA 15:00:00 TS -12.02 133.76 992 bom 0 0 P_____O__PP_P_ SH271969 -11.80 134.13 -1 -12.20 133.40 992 -11.80 134.13 TC -11.74 134.14 2 -12.24 133.62 TC 37 991 7 253
1969 SI WA 18:00:00 TS -12.13 133.42 992 bom 0 0 O_____O__OP_O_ jtwc_sh SH271969 -11.90 133.90 -1 -12.30 133.00 992 -11.90 133.90 TC -11.78 133.90 2 -12.40 133.20 TC 35 991 8 252
1969 SI WA 21:00:00 TS -12.26 133.03 992 bom 0 0 P_____O__PP_P_ SH271969 -11.95 133.56 -1 -12.50 132.60 992 -11.95 133.56 TC -11.88 133.58 2 -12.53 132.81 TC 35 991 9 250
1969 SI WA 23:00:00 TS -12.37 132.74 0 0 P_____P__PO_P_ SH271969 -12.03 133.27 -1 -12.63 132.27 992 -12.03 133.27 TC -12.00 133.30 2 -12.64 132.54 TC 35 991 10 248
1969 SI WA 1969-03-04 00:00:00 TS -12.44 132.58 993 bom 0 0 O_____O__OP_O_ jtwc_sh SH271969 -12.10 133.10 -1 -12.70 132.10 993 -12.10 133.10 TC -12.10 133.14 2 -12.70 132.40 TC 35 992 11 242
1969 SI WA 03:00:00 TS -12.72 132.07 0 0 P_____P__PP_P_ SH271969 -12.45 132.55 -1 -12.90 131.65 993 -12.45 132.55 TC -12.46 132.57 2 -12.94 131.91 TC 32 992 12 240
1969 SI WA 06:00:00 TS -13.04 131.52 994 bom 0 0 O_____O__OP_O_ jtwc_sh SH271969 -12.90 131.90 -1 -13.10 131.20 994 -12.90 131.90 TC -12.89 131.91 2 -13.20 131.40 TC 30 993 13 239
1969 SI WA 09:00:00 TS -13.36 130.96 994 bom 0 0 P_____O__PP_P_ SH271969 -13.31 131.24 -1 -13.30 130.70 994 -13.31 131.24 TC -13.33 131.19 2 -13.45 130.96 TC 30 993 13 240
1969 SI WA 11:00:00 TS -13.57 130.59 0 0 P_____P__PO_P_ SH271969 -13.58 130.76 -1 -13.50 130.44 994 -13.58 130.76 TC -13.60 130.70 1 -13.62 130.66 TC 30 993 13 240
1969 SI WA 12:00:00 TS -13.68 130.40 994 bom 0 0 O_____O__OP_O_ jtwc_sh SH271969 -13.70 130.50 -1 -13.60 130.30 994 -13.70 130.50 TC -13.72 130.44 1 -13.70 130.50 TC 30 994 14 245
1969 SI WA 15:00:00 TS -13.95 129.75 993 bom 0 0 P_____O__PP_P_ SH271969 -14.03 129.63 -1 -13.80 129.80 993 -14.03 129.63 TC -14.04 129.65 1 -13.95 129.94 TC 30 993 13 246
1969 SI WA 18:00:00 TS -14.21 129.13 992 bom 34 34 O_____O__OP_O_ jtwc_sh SH271969 -14.30 128.80 -1 -14.00 129.50 992 -14.30 128.80 TC -14.32 128.87 1 -14.20 129.40 TC 30 992 12 247
1969 SI WA 21:00:00 TS -14.43 128.60 975 bom 54 11 P_____O__PP_P_ SH271969 -14.52 128.16 -1 -14.10 129.20 975 -14.52 128.16 TC -14.56 128.18 1 -14.46 128.97 TC 30 990 12 245
1969 SI WA 23:00:00 TS -14.63 128.22 11 0 P_____P__PO_P_ SH271969 -14.64 127.83 -1 -14.60 128.45 975 -14.64 127.83 TC -14.70 127.80 1 -14.63 128.72 TC 30 988 12 242
1969 SI WA 23:30:00 TS -14.67 128.14 976 bom 0 0 P_____O__PP_P_ SH271969 -14.67 127.76 -1 -14.70 128.30 976 4 -14.67 127.76 TC -14.73 127.73 1 -14.67 128.66 TC 30 988 10 242
1969 SI WA 1969-03-05 00:00:00 TS -14.71 128.07 0 0 O_____P__OP_O_ jtwc_sh SH271969 -14.70 127.70 -1 -14.75 128.21 979 -14.70 127.70 TC -14.76 127.66 1 -14.70 128.60 TC 30 988 8 243
1969 SI WA 01:30:00 TS -14.79 127.90 988 bom 0 0 P_____O__PP_P_ SH271969 -14.79 127.53 -1 -14.80 128.10 988 -14.79 127.53 TC -14.84 127.48 1 -14.79 128.42 TC 30 989 7 241
1969 SI WA 03:00:00 TS -14.88 127.75 0 0 P_____P__PP_P_ SH271969 -14.86 127.40 -1 -14.92 127.98 991 -14.86 127.40 TC -14.91 127.35 1 -14.87 128.24 TC 30 990 6 239
1969 SI WA 04:00:00 TS -14.93 127.66 993 bom 0 0 P_____O__PP_P_ SH271969 -14.91 127.33 -1 -15.00 127.90 993 -14.91 127.33 TC -14.95 127.27 1 -14.92 128.13 TC 30 991 6 240
1969 SI WA 06:00:00 TS -15.02 127.49 0 0 O_____P__OP_O_ jtwc_sh SH271969 -15.00 127.20 -1 -15.12 127.71 993 -15.00 127.20 TC -15.02 127.15 1 -15.00 127.90 TC 30 993 6 244
1969 SI WA 09:00:00 TS -15.14 127.22 0 0 P_____P__PP_P_ SH271969 -15.10 127.00 -1 -15.22 127.39 994 -15.10 127.00 TC -15.13 127.00 1 -15.11 127.55 TC 30 993 6 248
1969 SI WA 11:00:00 TS -15.20 127.04 0 0 P_____P__PO_P_ SH271969 -15.16 126.87 -1 -15.26 127.15 994 -15.16 126.87 TC -15.20 126.90 2 -15.17 127.32 TC 30 993 6 249
1969 SI WA 12:00:00 TS -15.24 126.94 0 0 O_____P__OP_O_ jtwc_sh SH271969 -15.20 126.80 -1 -15.28 127.03 994 -15.20 126.80 TC -15.24 126.83 2 -15.20 127.20 TC 30 994 6 251
1969 SI WA 13:00:00 TS -15.27 126.84 995 bom 0 0 P_____O__PP_P_ SH271969 -15.24 126.72 -1 -15.30 126.90 995 -15.24 126.72 TC -15.29 126.75 2 -15.24 127.09 TC 30 994 6 251
1969 SI WA 15:00:00 TS -15.33 126.66 0 0 P_____P__PP_P_ SH271969 -15.33 126.56 -1 -15.30 126.71 995 -15.33 126.56 TC -15.38 126.61 2 -15.31 126.86 TC 30 994 6 251
1969 SI WA 18:00:00 TS -15.43 126.36 0 0 O_____P__OP_O_ jtwc_sh SH271969 -15.50 126.30 -1 -15.29 126.42 995 -15.50 126.30 TC -15.52 126.37 2 -15.40 126.50 TC 30 995 6 250
1969 SI WA 21:00:00 TS -15.54 126.05 0 0 P_____P__PP_P_ SH271969 -15.69 126.07 -1 -15.34 126.05 995 -15.69 126.07 TC -15.68 126.10 2 -15.42 126.14 TC 30 995 7 248
1969 SI WA 23:00:00 TS -15.65 125.81 0 0 P_____P__PO_P_ SH271969 -15.83 125.90 -1 -15.43 125.72 995 -15.83 125.90 TC -15.80 125.90 2 -15.46 125.86 TC 30 995 8 246
1969 SI WA 1969-03-06 00:00:00 TS -15.71 125.67 0 0 O_____P__OP_O_ jtwc_sh SH271969 -15.90 125.80 -1 -15.50 125.52 995 -15.90 125.80 TC -15.86 125.78 2 -15.50 125.70 TC 30 995 10 245
1969 SI WA 01:00:00 TS -15.78 125.50 996 bom 0 0 P_____O__PP_P_ SH271969 -15.96 125.68 -1 -15.60 125.30 996 -15.96 125.68 TC -15.93 125.66 2 -15.57 125.49 TC 30 994 11 244
1969 SI WA 03:00:00 TS -15.96 125.13 0 0 P_____P__PP_P_ SH271969 -16.09 125.42 -1 -15.87 124.74 994 -16.09 125.42 TC -16.06 125.39 2 -15.76 125.02 TC 32 994 12 243
1969 SI WA 04:00:00 TS -16.05 124.95 bom 0 0 P_____I__PP_P_ SH271969 -16.16 125.28 -1 -16.00 124.50 994 -16.16 125.28 TC -16.13 125.25 2 -15.87 124.79 TC 33 993 11 241
1969 SI WA 06:00:00 TS -16.23 124.63 bom 0 0 O_____I__OP_O_ jtwc_sh SH271969 -16.30 125.00 -1 -16.20 124.20 993 -16.30 125.00 TC -16.28 124.97 2 -16.10 124.40 TC 35 993 10 239
1969 SI WA 07:00:00 TS -16.32 124.48 993 bom 0 0 P_____O__PP_P_ SH271969 -16.37 124.86 -1 -16.30 124.00 993 -16.37 124.86 TC -16.36 124.83 2 -16.20 124.28 TC 35 992 9 234
1969 SI WA 09:00:00 TS -16.50 124.24 0 0 P_____P__PP_P_ SH271969 -16.53 124.59 -1 -16.51 123.76 992 -16.53 124.59 TC -16.53 124.56 2 -16.39 124.12 TC 35 992 8 227
1969 SI WA 11:00:00 TS -16.69 124.06 0 0 P_____P__PO_P_ SH271969 -16.71 124.33 -1 -16.73 123.69 991 -16.71 124.33 TC -16.70 124.30 1 -16.59 124.03 TC 35 991 8 220
1969 SI WA 12:00:00 TS -16.80 123.98 0 0 O_____P__OP_O_ jtwc_sh SH271969 -16.80 124.20 -1 -16.85 123.70 991 -16.80 124.20 TC -16.79 124.17 1 -16.70 124.00 TC 35 991 8 213
1969 SI WA 15:00:00 TS -17.11 123.77 10 0 P_____P__PP_P_ SH271969 -17.09 123.83 -1 -17.19 123.79 990 -17.09 123.83 TC -17.10 123.81 1 -17.05 123.90 TC 32 990 7 211
1969 SI WA 16:00:00 TS -17.22 123.71 990 bom 0 0 P_____O__PP_P_ SH271969 -17.19 123.71 -1 -17.30 123.80 990 -17.19 123.71 TC -17.20 123.70 1 -17.17 123.87 TC 31 990 8 212
1969 SI WA 18:00:00 TS -17.43 123.56 0 0 O_____P__OP_O_ jtwc_sh SH271969 -17.40 123.50 -1 -17.51 123.68 991 -17.40 123.50 TC -17.41 123.49 1 -17.40 123.80 TC 30 990 8 213
1969 SI WA 21:00:00 TS -17.74 123.35 0 0 P_____P__PP_P_ SH271969 -17.71 123.21 -1 -17.81 123.46 993 -17.71 123.21 TC -17.71 123.23 1 -17.71 123.60 TC 30 992 7 213
1969 SI WA 23:00:00 TS -17.94 123.22 0 0 P_____P__PO_P_ SH271969 -17.91 123.06 -1 -18.00 123.32 994 -17.91 123.06 TC -17.90 123.10 2 -17.90 123.46 TC 30 993 7 211
1969 SI WA 1969-03-07 00:00:00 TS -18.03 123.17 0 0 O_____P__OP_O_ jtwc_sh SH271969 -18.00 123.00 -1 -18.10 123.26 995 -18.00 123.00 TC -17.98 123.04 2 -18.00 123.40 TC 30 994 6 208
1969 SI WA 01:00:00 TS -18.12 123.12 996 bom 0 0 P_____O__PP_P_ SH271969 -18.08 122.96 -1 -18.20 123.20 996 -18.08 122.96 TC -18.05 122.99 2 -18.10 123.35 TC 30 994 6 203
1969 SI WA 03:00:00 TS -18.29 123.05 0 0 P_____P__PP_P_ SH271969 -18.21 122.91 -1 -18.41 123.11 996 -18.21 122.91 TC -18.19 122.92 2 -18.31 123.28 TC 30 995 5 198
1969 SI WA 06:00:00 TS -18.53 122.98 0 0 O_____P__OP_O_ jtwc_sh SH271969 -18.40 122.90 -1 -18.71 123.02 996 -18.40 122.90 TC -18.38 122.87 2 -18.60 123.20 TC 30 996 5 194
1969 SI WA 07:00:00 TS -18.61 122.96 996 bom 0 0 P_____O__PP_P_ SH271969 -18.47 122.89 -1 -18.80 123.00 996 -18.47 122.89 TC -18.45 122.86 2 -18.69 123.17 TC 30 996 5 192
1969 SI WA 09:00:00 TS -18.76 122.93 0 0 P_____P__PP_P_ SH271969 -18.60 122.89 -1 -18.97 122.94 -18.60 122.89 TC -18.57 122.87 2 -18.86 123.13 TC 30 996 5 189
1969 SI WA 11:00:00 TS -18.91 122.92 0 0 P_____P__PO_P_ SH271969 -18.73 122.89 -1 -19.13 122.88 -18.73 122.89 TC -18.70 122.90 1 -19.02 123.10 TC 30 996 4 185
1969 SI WA 12:00:00 TS -18.98 122.91 0 0 O_____P__OP_O_ jtwc_sh SH271969 -18.80 122.90 -1 -19.21 122.86 -18.80 122.90 TC -18.78 122.90 1 -19.10 123.10 TC 30 997 4 177
1969 SI WA 15:00:00 TS -19.18 122.92 0 0 P_____P__PP_P_ SH271969 -18.99 122.92 -1 -19.41 122.81 -18.99 122.92 TC -19.01 122.95 1 -19.31 123.14 TC 30 998 4 171
1969 SI WA 18:00:00 TS -19.38 122.98 0 0 O_____P__OP_O_ jtwc_sh SH271969 -19.20 123.00 -1 -19.60 122.81 -19.20 123.00 TC -19.24 123.04 1 -19.50 123.20 TC 30 999 4 160
1969 SI WA 21:00:00 TS -19.60 123.08 0 0 P_____P__PP_P_ SH271969 -19.46 123.17 -1 -19.77 122.88 -19.46 123.17 TC -19.46 123.18 1 -19.71 123.17 TC 30 1000 5 151
1969 SI WA 23:00:00 TS -19.74 123.19 0 0 P_____P__PO_P_ SH271969 -19.63 123.32 -1 -19.89 122.97 -19.63 123.32 TC -19.60 123.30 1 -19.84 123.17 TC 30 1000 5 142
1969 SI WA 1969-03-08 00:00:00 TS -19.80 123.25 0 0 O_____P__OP_O_ jtwc_sh SH271969 -19.70 123.40 -1 -19.94 123.03 -19.70 123.40 TC -19.66 123.36 1 -19.90 123.20 TC 30 1001 5 135
1969 SI WA 01:00:00 TS -19.86 123.32 1002 bom 0 0 P_____O__PP_P_ SH271969 -19.76 123.48 -1 -20.00 123.10 1002 -19.76 123.48 TC -19.72 123.44 1 -19.95 123.25 TC 30 1001 6 128
1969 SI WA 03:00:00 TS -19.98 123.48 0 0 P_____P__PP_P_ SH271969 -19.87 123.64 -1 -20.13 123.28 1002 -19.87 123.64 TC -19.83 123.60 1 -20.05 123.40 TC 30 1001 6 122
1969 SI WA 06:00:00 TS -20.13 123.78 0 0 O_____P__OP_O_ jtwc_sh SH271969 -20.00 123.90 -1 -20.33 123.63 1002 -20.00 123.90 TC -19.98 123.87 1 -20.20 123.70 TC 30 1002 7 117
1969 SI WA 09:00:00 TS -20.28 124.12 0 0 P_____P__PP_P_ SH271969 -20.10 124.19 -1 -20.50 124.03 1002 -20.10 124.19 TC -20.11 124.18 1 -20.41 124.03 TC 27 1002 7 114
1969 SI WA 11:00:00 TS -20.37 124.36 0 0 P_____P__PO_P_ SH271969 -20.16 124.39 -1 -20.61 124.31 1002 -20.16 124.39 TC -20.20 124.40 1 -20.54 124.27 TC 25 1002 7 112
1969 SI WA 12:00:00 TS -20.42 124.48 0 0 O_____P__OP_O_ jtwc_sh SH271969 -20.20 124.50 -1 -20.66 124.46 1002 -20.20 124.50 TC -20.24 124.51 1 -20.60 124.40 TC 25 1002 8 115
1969 SI WA 13:00:00 TS -20.48 124.60 1003 bom 0 0 P_____O__PP_P_ SH271969 -20.24 124.61 -1 -20.70 124.60 1003 -20.24 124.61 TC -20.29 124.62 1 -20.65 124.53 TC 25 1002 8 116
1969 SI WA 15:00:00 TS -20.59 124.85 0 0 P_____P__PP_P_ SH271969 -20.34 124.84 -1 -20.78 124.88 1003 -20.34 124.84 TC -20.37 124.85 1 -20.72 124.79 TC 25 1002 8 113
1969 SI WA 18:00:00 TS -20.73 125.25 0 0 O_____P__OP_O_ jtwc_sh SH271969 -20.50 125.20 -1 -20.86 125.29 1003 -20.50 125.20 TC -20.49 125.20 1 -20.80 125.20 TC 25 1003 8 110
1969 SI WA 21:00:00 TS -20.86 125.65 0 0 ______P___P_P_ SH271969 -1 -20.93 125.68 1004 TC -20.62 125.56 1 -20.86 125.60 TC 22 1003 8 106
1969 SI WA 23:00:00 TS -20.91 125.91 0 0 ______P___O_P_ SH271969 -1 -20.97 125.94 1004 TC -20.70 125.80 1 -20.89 125.87 TC 20 1003 8 106
1969 SI WA 1969-03-09 00:00:00 TS -20.97 126.06 0 0 ______P_____O_ -1 -20.98 126.07 1004 1 -20.90 126.00 TC 20 1004 8 108
1969 SI WA 01:00:00 NR -21.00 126.20 1005 bom 0 ______O_______ -1 -21.00 126.20 1005 1 TC 8 104